Time;durP1;ratioP1;P1;durP2;ratioP2;P2;SDS_P1;SDS_P2;PMS_P1;PMS_P2;Temp;Humidity;BMP_temperature;BMP_pressure;BME280_temperature;BME280_humidity;BME280_pressure;Samples;Min_cycle;Max_cycle;Signal;HPM_P1;HPM_P2
2022/03/27 00:00:15;;;;;;;11.13;2.27;;;20.90;99.90;;;;;;5070791;28;20187;-66
2022/03/27 00:02:43;;;;;;;12.03;1.77;;;20.80;99.90;;;;;;5071810;28;20645;-67
2022/03/27 00:05:13;;;;;;;11.93;2.03;;;20.80;99.90;;;;;;5071749;28;20181;-68
2022/03/27 00:07:41;;;;;;;7.30;1.47;;;20.80;99.90;;;;;;5071646;28;20236;-68
2022/03/27 00:10:09;;;;;;;8.37;1.50;;;20.60;99.90;;;;;;5069726;28;20525;-67
2022/03/27 00:12:36;;;;;;;7.10;1.93;;;20.40;99.90;;;;;;5071657;28;20191;-66
2022/03/27 00:15:05;;;;;;;7.33;1.87;;;20.10;99.90;;;;;;5070508;28;20228;-66
2022/03/27 00:17:34;;;;;;;4.97;1.63;;;20.20;99.90;;;;;;5070726;28;20190;-68
2022/03/27 00:20:03;;;;;;;10.87;2.00;;;20.10;99.90;;;;;;5070753;28;20171;-68
2022/03/27 00:22:31;;;;;;;7.00;1.30;;;20.20;99.90;;;;;;5069514;28;20177;-69
2022/03/27 00:24:58;;;;;;;5.63;1.33;;;20.20;99.90;;;;;;5069767;28;20184;-69
2022/03/27 00:27:26;;;;;;;6.67;1.90;;;20.10;99.90;;;;;;5069767;28;20554;-68
2022/03/27 00:29:53;;;;;;;5.87;1.40;;;20.30;99.90;;;;;;5069458;28;20237;-69
2022/03/27 00:32:22;;;;;;;10.27;2.27;;;20.40;99.90;;;;;;5070017;28;20198;-69
2022/03/27 00:34:50;;;;;;;3.70;1.40;;;20.50;99.90;;;;;;5069946;28;20273;-69
2022/03/27 00:37:17;;;;;;;8.97;1.77;;;20.40;99.90;;;;;;5070667;28;20676;-69
2022/03/27 00:39:45;;;;;;;9.53;1.43;;;20.70;99.90;;;;;;5071370;28;20180;-69
2022/03/27 00:42:12;;;;;;;6.97;1.73;;;20.80;99.90;;;;;;5071614;28;20183;-69
2022/03/27 00:44:40;;;;;;;6.20;1.00;;;21.10;99.90;;;;;;5070198;28;20186;-69
2022/03/27 00:47:10;;;;;;;4.23;1.30;;;21.20;99.90;;;;;;5070743;28;20549;-69
2022/03/27 00:49:37;;;;;;;6.80;1.40;;;21.40;99.90;;;;;;5036739;28;20195;-69
2022/03/27 00:52:05;;;;;;;6.17;1.40;;;21.50;99.90;;;;;;5073724;28;20541;-70
2022/03/27 00:54:32;;;;;;;9.57;1.50;;;21.90;99.90;;;;;;5074145;28;20226;-69
2022/03/27 00:56:59;;;;;;;8.53;2.03;;;22.60;99.90;;;;;;5075393;28;20634;-70
2022/03/27 00:59:27;;;;;;;6.13;1.47;;;23.20;99.90;;;;;;5073698;28;20190;-70
2022/03/27 01:01:54;;;;;;;7.17;1.67;;;23.40;99.90;;;;;;5074891;28;20289;-69
2022/03/27 01:04:22;;;;;;;6.17;1.30;;;23.40;99.90;;;;;;5075356;28;20271;-69
2022/03/27 01:06:49;;;;;;;5.20;1.20;;;23.40;99.90;;;;;;5074958;28;20224;-70
2022/03/27 01:09:38;;;;;;;5.83;1.57;;;23.90;99.90;;;;;;5074976;28;20194;-70
2022/03/27 01:12:24;;;;;;;7.00;1.83;;;24.50;99.90;;;;;;5075024;28;20184;-68
2022/03/27 01:14:54;;;;;;;7.13;1.70;;;24.60;99.90;;;;;;5074870;28;20316;-70
2022/03/27 01:17:26;;;;;;;7.27;1.53;;;24.90;99.90;;;;;;5074434;28;20269;-69
2022/03/27 01:19:55;;;;;;;6.03;1.70;;;25.30;99.90;;;;;;5075140;28;20656;-69
2022/03/27 01:22:24;;;;;;;5.43;1.40;;;25.60;99.90;;;;;;5074454;28;20188;-68
2022/03/27 01:24:52;;;;;;;6.40;1.77;;;25.80;99.90;;;;;;5074781;28;20552;-68
2022/03/27 01:27:20;;;;;;;3.13;1.00;;;25.90;99.90;;;;;;5065639;28;20258;-71
2022/03/27 01:29:48;;;;;;;6.40;1.20;;;25.60;99.90;;;;;;5065665;28;20184;-67
2022/03/27 01:32:16;;;;;;;7.27;1.67;;;24.80;99.90;;;;;;5074793;28;20184;-67
2022/03/27 01:34:44;;;;;;;5.60;1.63;;;25.10;99.90;;;;;;5074619;28;20314;-67
2022/03/27 01:37:16;;;;;;;6.03;1.27;;;25.10;99.90;;;;;;5074760;28;20183;-69
2022/03/27 01:39:45;;;;;;;5.63;1.40;;;24.70;99.90;;;;;;5074679;28;20272;-68
2022/03/27 01:42:13;;;;;;;8.53;1.40;;;24.40;99.90;;;;;;5066573;28;20199;-69
2022/03/27 01:44:41;;;;;;;5.17;1.20;;;24.10;99.90;;;;;;5061393;28;20191;-69
2022/03/27 01:47:08;;;;;;;3.57;1.03;;;24.10;99.90;;;;;;5073794;28;20638;-68
2022/03/27 01:49:35;;;;;;;5.33;1.23;;;24.50;99.90;;;;;;5073956;28;20192;-68
2022/03/27 01:52:03;;;;;;;5.23;1.30;;;24.60;99.90;;;;;;5080800;28;20190;-68
2022/03/27 01:54:30;;;;;;;5.07;1.30;;;24.50;99.90;;;;;;5094490;28;20242;-69
2022/03/27 01:56:58;;;;;;;7.37;1.60;;;24.30;99.90;;;;;;5094409;28;20720;-69
2022/03/27 01:59:25;;;;;;;5.70;0.90;;;23.90;99.90;;;;;;5094283;28;20269;-69
2022/03/27 02:01:53;;;;;;;2.87;0.70;;;23.30;99.90;;;;;;5094422;28;20772;-70
2022/03/27 02:04:20;;;;;;;5.70;1.30;;;22.50;99.90;;;;;;5085355;28;20176;-69
2022/03/27 02:06:48;;;;;;;5.87;1.00;;;21.70;99.90;;;;;;5074284;28;20179;-69
2022/03/27 02:09:23;;;;;;;3.73;0.90;;;21.10;99.90;;;;;;5072794;28;20192;-70
2022/03/27 02:11:51;;;;;;;4.20;1.10;;;20.70;99.90;;;;;;5073669;28;20180;-70
2022/03/27 02:14:18;;;;;;;4.87;1.20;;;20.40;99.90;;;;;;5073758;28;20251;-70
2022/03/27 02:16:45;;;;;;;5.10;1.20;;;20.30;99.90;;;;;;5074030;28;20178;-70
2022/03/27 02:19:13;;;;;;;4.67;1.20;;;20.10;99.90;;;;;;5072461;28;20207;-71
2022/03/27 02:21:42;;;;;;;3.23;1.10;;;20.10;99.90;;;;;;5073233;28;20184;-70
2022/03/27 02:24:11;;;;;;;5.67;1.83;;;20.10;99.90;;;;;;5073896;28;20251;-71
2022/03/27 02:26:45;;;;;;;3.13;0.90;;;20.10;99.90;;;;;;5073941;28;20270;-72
2022/03/27 02:29:16;;;;;;;5.47;1.23;;;20.00;99.90;;;;;;5073676;28;20199;-71
2022/03/27 02:31:45;;;;;;;3.87;1.17;;;20.10;99.90;;;;;;5073082;28;20244;-70
2022/03/27 02:34:12;;;;;;;3.20;0.97;;;20.10;99.90;;;;;;5072295;28;20222;-68
2022/03/27 02:36:40;;;;;;;3.67;1.00;;;20.00;99.90;;;;;;5073641;28;20167;-69
2022/03/27 02:39:07;;;;;;;4.13;1.43;;;20.10;99.90;;;;;;5073472;28;20178;-69
2022/03/27 02:41:34;;;;;;;4.57;1.23;;;20.10;99.90;;;;;;5073072;28;20172;-69
2022/03/27 02:44:02;;;;;;;3.23;1.10;;;20.20;99.90;;;;;;5073505;28;20176;-69
2022/03/27 02:46:29;;;;;;;3.33;0.90;;;20.10;99.90;;;;;;5072161;28;20184;-68
2022/03/27 02:48:56;;;;;;;3.20;0.70;;;20.10;99.90;;;;;;5073390;28;20179;-70
2022/03/27 02:51:24;;;;;;;3.53;0.90;;;20.10;99.90;;;;;;5071770;28;20176;-69
2022/03/27 02:53:51;;;;;;;2.87;0.70;;;20.10;99.90;;;;;;5071929;28;20267;-69
2022/03/27 02:56:18;;;;;;;7.73;1.23;;;20.10;99.90;;;;;;5073147;28;20184;-69
2022/03/27 02:58:46;;;;;;;4.43;0.93;;;20.20;99.90;;;;;;5073189;28;20192;-69
2022/03/27 03:01:13;;;;;;;5.17;1.30;;;20.40;99.90;;;;;;5071376;28;20560;-69
2022/03/27 03:03:42;;;;;;;1.97;1.03;;;20.60;99.90;;;;;;5073072;28;20208;-69
2022/03/27 03:06:10;;;;;;;4.83;1.00;;;20.80;99.90;;;;;;5071749;28;20322;-70
2022/03/27 03:08:41;;;;;;;2.77;1.00;;;21.00;99.90;;;;;;5072335;28;20263;-69
2022/03/27 03:11:08;;;;;;;1.50;0.60;;;21.20;99.90;;;;;;5072967;28;20261;-69
2022/03/27 03:13:35;;;;;;;1.90;0.90;;;21.20;99.90;;;;;;5072596;28;20285;-69
2022/03/27 03:16:03;;;;;;;1.47;0.60;;;21.50;99.90;;;;;;5070546;28;20217;-69
2022/03/27 03:18:33;;;;;;;3.67;0.80;;;22.00;99.90;;;;;;5072605;28;20183;-69
2022/03/27 03:21:01;;;;;;;3.13;0.90;;;22.20;99.90;;;;;;5072811;28;20222;-69
2022/03/27 03:23:29;;;;;;;3.37;1.07;;;22.40;99.90;;;;;;5072584;28;20172;-69
2022/03/27 03:25:56;;;;;;;2.93;0.93;;;22.40;99.90;;;;;;5072617;28;20182;-69
2022/03/27 03:28:23;;;;;;;4.00;1.23;;;22.30;99.90;;;;;;5072245;28;20199;-70
2022/03/27 03:30:51;;;;;;;2.20;1.40;;;22.20;99.90;;;;;;5072170;28;20183;-69
2022/03/27 03:33:20;;;;;;;4.47;1.20;;;22.00;99.90;;;;;;5072492;28;20172;-69
2022/03/27 03:35:48;;;;;;;4.57;1.03;;;22.10;99.90;;;;;;5072532;28;20223;-69
2022/03/27 03:38:17;;;;;;;3.63;1.27;;;22.10;99.90;;;;;;5072479;28;20171;-69
2022/03/27 03:40:44;;;;;;;7.30;1.33;;;22.10;99.90;;;;;;5050732;28;20666;-69
2022/03/27 03:43:12;;;;;;;3.17;0.97;;;22.10;99.90;;;;;;5052187;28;20606;-69
2022/03/27 03:45:40;;;;;;;3.77;1.07;;;21.90;99.90;;;;;;5067817;28;20187;-69
2022/03/27 03:48:08;;;;;;;3.00;1.00;;;21.80;99.90;;;;;;5052291;28;20693;-69
2022/03/27 03:50:35;;;;;;;5.50;1.13;;;21.80;99.90;;;;;;5069670;28;20187;-69
2022/03/27 03:53:04;;;;;;;6.13;1.80;;;21.80;99.90;;;;;;5071954;28;20271;-69
2022/03/27 03:55:31;;;;;;;2.47;1.00;;;21.80;99.90;;;;;;5071867;28;20211;-69
2022/03/27 03:57:58;;;;;;;4.03;1.10;;;21.80;99.90;;;;;;5071889;28;20187;-69
2022/03/27 04:00:26;;;;;;;3.83;1.63;;;21.60;99.90;;;;;;5072147;28;20195;-69
2022/03/27 04:02:54;;;;;;;9.27;2.40;;;21.60;99.90;;;;;;5071108;28;20180;-69
2022/03/27 04:05:21;;;;;;;8.37;1.70;;;21.60;99.90;;;;;;5073104;28;20175;-69
2022/03/27 04:07:48;;;;;;;5.73;1.50;;;21.50;99.90;;;;;;5072831;28;20249;-69
2022/03/27 04:10:15;;;;;;;7.63;1.63;;;21.40;99.90;;;;;;5072119;28;20225;-69
2022/03/27 04:12:43;;;;;;;2.97;1.33;;;21.40;99.90;;;;;;5071984;28;20270;-70
2022/03/27 04:15:11;;;;;;;6.13;1.53;;;21.50;99.90;;;;;;5072176;28;20238;-69
2022/03/27 04:17:45;;;;;;;5.13;1.37;;;21.60;99.90;;;;;;5072131;28;20211;-69
2022/03/27 04:20:13;;;;;;;6.53;1.43;;;21.70;99.90;;;;;;5071585;28;20187;-69
2022/03/27 04:22:42;;;;;;;7.83;1.50;;;21.80;99.90;;;;;;5071501;28;20187;-69
2022/03/27 04:25:10;;;;;;;10.20;1.90;;;22.00;99.90;;;;;;5071771;28;20175;-70
2022/03/27 04:27:38;;;;;;;8.50;2.07;;;22.00;99.90;;;;;;5071627;28;20269;-70
2022/03/27 04:30:10;;;;;;;5.47;1.30;;;22.30;99.90;;;;;;5071651;28;20263;-70
2022/03/27 04:32:39;;;;;;;6.47;1.70;;;22.40;99.90;;;;;;5071630;28;20640;-70
2022/03/27 04:35:09;;;;;;;6.17;1.70;;;22.50;99.90;;;;;;5071528;28;20223;-69
2022/03/27 04:37:43;;;;;;;4.10;1.13;;;22.80;99.90;;;;;;5071238;28;20187;-69
2022/03/27 04:40:13;;;;;;;8.60;1.30;;;23.10;99.90;;;;;;5071747;28;20199;-70
2022/03/27 04:42:42;;;;;;;6.03;1.40;;;23.20;99.90;;;;;;5071265;28;20184;-70
2022/03/27 04:45:11;;;;;;;5.73;1.40;;;23.40;99.90;;;;;;5071505;28;20164;-69
2022/03/27 04:47:38;;;;;;;3.40;1.23;;;23.30;99.90;;;;;;5051351;28;20188;-70
2022/03/27 04:50:07;;;;;;;8.20;1.53;;;23.20;99.90;;;;;;5064868;28;20331;-70
2022/03/27 04:52:34;;;;;;;7.70;1.47;;;23.20;99.90;;;;;;5069902;28;20555;-70
2022/03/27 04:55:02;;;;;;;4.47;1.83;;;23.20;99.90;;;;;;5071458;28;20669;-69
2022/03/27 04:57:39;;;;;;;3.50;0.90;;;23.40;99.90;;;;;;5071368;28;20319;-69
2022/03/27 05:00:14;;;;;;;5.20;1.10;;;23.60;99.90;;;;;;5071422;28;20541;-69
2022/03/27 05:02:42;;;;;;;4.30;1.40;;;23.50;99.90;;;;;;5071048;28;20183;-70
2022/03/27 05:05:11;;;;;;;10.77;2.03;;;23.30;99.90;;;;;;5071469;28;20176;-70
2022/03/27 05:07:40;;;;;;;9.43;1.43;;;23.30;99.90;;;;;;5071313;28;20594;-69
2022/03/27 05:10:09;;;;;;;4.27;1.27;;;23.30;99.90;;;;;;5071217;28;20168;-70
2022/03/27 05:12:37;;;;;;;4.07;1.07;;;23.30;99.90;;;;;;5059980;28;20199;-70
2022/03/27 05:15:05;;;;;;;6.93;1.13;;;23.20;99.90;;;;;;5070949;28;20224;-70
2022/03/27 05:17:32;;;;;;;4.83;1.13;;;23.20;99.90;;;;;;5071084;28;20188;-68
2022/03/27 05:20:04;;;;;;;6.47;1.27;;;23.20;99.90;;;;;;5071208;28;20219;-70
2022/03/27 05:22:31;;;;;;;5.77;1.30;;;23.10;99.90;;;;;;5070974;28;20179;-68
2022/03/27 05:24:59;;;;;;;5.23;1.10;;;23.30;99.90;;;;;;5071169;28;20630;-68
2022/03/27 05:27:26;;;;;;;3.63;1.00;;;23.40;99.90;;;;;;5070942;28;20179;-69
2022/03/27 05:29:53;;;;;;;4.63;1.10;;;23.40;99.90;;;;;;5071001;28;20260;-68
2022/03/27 05:32:21;;;;;;;3.27;0.90;;;23.40;99.90;;;;;;5071027;28;20549;-68
2022/03/27 05:34:48;;;;;;;3.43;1.10;;;23.10;99.90;;;;;;5076655;28;20219;-68
2022/03/27 05:37:15;;;;;;;4.57;1.10;;;22.60;99.90;;;;;;5071089;28;20242;-69
2022/03/27 05:39:43;;;;;;;3.50;1.10;;;21.70;99.90;;;;;;5074128;28;20265;-69
2022/03/27 05:42:10;;;;;;;5.63;1.20;;;20.80;99.90;;;;;;5074712;28;20579;-69
2022/03/27 05:44:38;;;;;;;7.07;1.17;;;20.30;99.90;;;;;;5074616;28;20173;-69
2022/03/27 05:47:05;;;;;;;8.10;1.50;;;20.10;99.90;;;;;;5074560;28;20583;-69
2022/03/27 05:49:32;;;;;;;5.40;1.63;;;20.00;99.90;;;;;;5073173;28;20559;-69
2022/03/27 05:52:00;;;;;;;4.60;1.10;;;19.80;99.90;;;;;;5074619;28;20178;-69
2022/03/27 05:54:27;;;;;;;8.03;1.73;;;19.90;99.90;;;;;;5073773;28;20196;-68
2022/03/27 05:56:54;;;;;;;11.13;2.77;;;19.90;99.90;;;;;;5074439;28;20661;-68
2022/03/27 05:59:22;;;;;;;4.60;1.63;;;19.90;99.90;;;;;;5074148;28;20169;-68
2022/03/27 06:01:49;;;;;;;9.13;1.80;;;19.90;99.90;;;;;;5073843;28;20188;-68
2022/03/27 06:04:16;;;;;;;2.60;1.10;;;20.00;99.90;;;;;;5074161;28;20290;-69
2022/03/27 06:06:44;;;;;;;7.37;1.80;;;20.10;99.90;;;;;;5072527;28;20655;-69
2022/03/27 06:09:11;;;;;;;7.53;1.80;;;20.10;99.90;;;;;;5074273;28;20583;-69
2022/03/27 06:11:38;;;;;;;6.77;1.53;;;20.10;99.90;;;;;;5074130;28;20195;-68
2022/03/27 06:14:06;;;;;;;10.23;1.90;;;20.20;99.90;;;;;;5073341;28;20747;-68
2022/03/27 06:16:33;;;;;;;9.27;1.53;;;20.20;99.90;;;;;;5073962;28;20221;-68
2022/03/27 06:19:00;;;;;;;9.20;1.67;;;20.20;99.90;;;;;;5073822;28;20209;-69
2022/03/27 06:21:28;;;;;;;7.63;1.70;;;20.20;99.90;;;;;;5073680;28;20551;-68
2022/03/27 06:23:55;;;;;;;11.67;1.87;;;20.20;99.90;;;;;;5073687;28;20183;-68
2022/03/27 06:26:22;;;;;;;9.87;1.30;;;20.20;99.90;;;;;;5073738;28;20245;-68
2022/03/27 06:28:50;;;;;;;14.27;1.87;;;20.20;99.90;;;;;;5072721;28;20206;-68
2022/03/27 06:31:17;;;;;;;8.37;1.80;;;20.20;99.90;;;;;;5073706;28;20205;-68
2022/03/27 06:33:47;;;;;;;5.20;1.67;;;20.20;99.90;;;;;;5073250;28;20194;-69
2022/03/27 06:36:18;;;;;;;10.90;2.10;;;20.20;99.90;;;;;;5073049;28;20579;-68
2022/03/27 06:38:45;;;;;;;10.20;2.40;;;20.20;99.90;;;;;;5072110;28;20184;-69
2022/03/27 06:41:12;;;;;;;10.70;2.87;;;20.20;99.90;;;;;;5073043;28;20189;-69
2022/03/27 06:43:40;;;;;;;10.47;2.40;;;20.20;99.90;;;;;;5073184;28;20188;-69
2022/03/27 06:46:07;;;;;;;10.20;2.23;;;20.20;99.90;;;;;;5073570;28;20536;-68
2022/03/27 06:48:38;;;;;;;11.53;2.43;;;20.20;99.90;;;;;;5073386;28;20305;-68
2022/03/27 06:51:08;;;;;;;10.73;2.40;;;20.30;99.90;;;;;;5071974;28;20592;-68
2022/03/27 06:53:35;;;;;;;6.47;1.87;;;20.30;99.90;;;;;;5073006;28;20185;-68
2022/03/27 06:56:05;;;;;;;12.03;2.20;;;20.20;99.90;;;;;;5072272;28;20217;-69
2022/03/27 06:58:33;;;;;;;9.53;1.47;;;20.20;99.90;;;;;;5073341;28;20172;-69
2022/03/27 07:03:46;;;;;;;12.70;2.20;;;20.20;99.90;;;;;;5073280;28;20539;-69
2022/03/27 07:06:17;;;;;;;6.07;2.00;;;20.10;99.90;;;;;;5073293;28;20171;-69
2022/03/27 07:08:44;;;;;;;13.03;2.67;;;20.10;99.90;;;;;;5072573;28;20189;-69
2022/03/27 07:11:13;;;;;;;12.70;2.73;;;20.20;99.90;;;;;;5073082;28;20201;-70
2022/03/27 07:13:41;;;;;;;17.87;2.73;;;20.10;99.90;;;;;;5071413;28;20580;-70
2022/03/27 07:16:09;;;;;;;8.00;1.93;;;20.10;99.90;;;;;;5072691;28;20260;-70
2022/03/27 07:18:37;;;;;;;19.90;2.97;;;20.10;99.90;;;;;;5072908;28;20172;-69
2022/03/27 07:21:04;;;;;;;14.33;3.30;;;20.10;99.90;;;;;;5073003;28;20176;-70
2022/03/27 07:23:31;;;;;;;12.87;2.50;;;20.10;99.90;;;;;;5072496;28;20282;-69
2022/03/27 07:25:59;;;;;;;11.53;2.30;;;20.10;99.90;;;;;;5072718;28;20175;-70
2022/03/27 07:28:30;;;;;;;6.87;2.40;;;20.00;99.90;;;;;;5072690;28;20266;-71
2022/03/27 07:30:58;;;;;;;12.37;2.53;;;20.00;99.90;;;;;;5072631;28;20187;-69
2022/03/27 07:33:27;;;;;;;12.93;2.50;;;20.10;99.90;;;;;;5072330;28;20222;-69
2022/03/27 07:35:55;;;;;;;15.97;2.50;;;20.00;99.90;;;;;;5072423;28;20586;-69
2022/03/27 07:38:23;;;;;;;15.07;2.57;;;20.10;99.90;;;;;;5072100;28;20190;-69
2022/03/27 07:40:50;;;;;;;12.73;2.67;;;20.00;99.90;;;;;;5072483;28;20615;-69
2022/03/27 07:43:17;;;;;;;14.90;2.77;;;20.10;99.90;;;;;;5071844;28;20287;-69
2022/03/27 07:45:45;;;;;;;10.80;2.40;;;20.10;99.90;;;;;;5072418;28;20725;-69
2022/03/27 07:48:12;;;;;;;10.47;2.87;;;20.10;99.90;;;;;;5071827;28;20185;-69
2022/03/27 07:50:40;;;;;;;14.80;2.80;;;20.10;99.90;;;;;;5072271;28;20629;-69
2022/03/27 07:53:08;;;;;;;8.73;2.20;;;20.10;99.90;;;;;;5071927;28;20175;-70
2022/03/27 07:55:37;;;;;;;11.00;2.80;;;20.10;99.90;;;;;;5072112;28;20250;-70
2022/03/27 07:58:04;;;;;;;10.20;2.80;;;20.10;99.90;;;;;;5071992;28;20212;-70
2022/03/27 08:00:32;;;;;;;12.37;2.60;;;20.10;99.90;;;;;;5071479;28;20175;-69
2022/03/27 08:02:59;;;;;;;13.73;2.80;;;20.10;99.90;;;;;;5071507;28;20191;-70
2022/03/27 08:05:27;;;;;;;8.03;2.60;;;20.00;99.90;;;;;;5070761;28;20215;-69
2022/03/27 08:07:55;;;;;;;7.70;2.30;;;19.90;99.90;;;;;;5070784;28;20173;-70
2022/03/27 08:10:23;;;;;;;9.67;1.90;;;19.90;99.90;;;;;;5071183;28;20270;-69
2022/03/27 08:12:50;;;;;;;10.87;2.67;;;19.90;99.90;;;;;;5068922;28;20187;-70
2022/03/27 08:15:18;;;;;;;10.47;2.00;;;19.90;99.90;;;;;;5069654;28;20231;-70
2022/03/27 08:17:45;;;;;;;10.43;1.83;;;19.80;99.90;;;;;;5069058;28;20528;-70
2022/03/27 08:20:13;;;;;;;7.80;1.90;;;19.80;99.90;;;;;;5070257;28;20184;-70
2022/03/27 08:22:40;;;;;;;8.30;1.97;;;19.80;99.90;;;;;;5069042;28;20285;-72
2022/03/27 08:25:09;;;;;;;10.30;2.57;;;19.80;99.90;;;;;;5070344;28;20274;-70
2022/03/27 08:27:37;;;;;;;10.50;2.67;;;19.80;99.90;;;;;;5071713;28;20180;-71
2022/03/27 08:30:06;;;;;;;11.20;2.50;;;19.90;99.90;;;;;;5084924;28;20179;-72
2022/03/27 08:32:34;;;;;;;4.60;1.57;;;19.90;99.90;;;;;;5086254;28;20181;-71
2022/03/27 08:35:01;;;;;;;6.20;1.83;;;19.80;99.90;;;;;;5087277;28;20187;-70
2022/03/27 08:37:29;;;;;;;9.10;3.03;;;19.80;99.90;;;;;;5083908;28;20195;-70
2022/03/27 08:39:58;;;;;;;12.13;2.73;;;19.80;99.90;;;;;;5078843;28;20168;-70
2022/03/27 08:42:26;;;;;;;8.50;2.63;;;19.80;99.90;;;;;;5091465;28;20214;-74
2022/03/27 08:44:53;;;;;;;8.83;2.40;;;19.90;99.90;;;;;;5071390;28;20571;-71
2022/03/27 08:47:29;;;;;;;10.23;2.87;;;19.80;99.90;;;;;;5071472;28;20226;-70
2022/03/27 08:50:15;;;;;;;5.30;1.60;;;19.80;99.90;;;;;;5071511;28;20190;-70
2022/03/27 08:53:05;;;;;;;5.73;1.50;;;19.80;99.90;;;;;;5071660;28;20176;-70
2022/03/27 08:55:38;;;;;;;6.73;1.63;;;19.70;99.90;;;;;;5071478;28;20627;-72
2022/03/27 08:58:09;;;;;;;10.73;2.00;;;19.70;99.90;;;;;;5071890;28;20608;-71
2022/03/27 09:00:36;;;;;;;8.63;2.33;;;19.70;99.90;;;;;;5071294;28;20694;-70
2022/03/27 09:03:05;;;;;;;6.73;1.57;;;19.70;99.90;;;;;;5071491;28;20693;-71
2022/03/27 09:05:40;;;;;;;5.30;1.20;;;19.70;99.90;;;;;;5071522;28;20181;-70
2022/03/27 09:08:10;;;;;;;6.00;1.60;;;19.60;99.90;;;;;;5071548;28;20165;-71
2022/03/27 09:10:38;;;;;;;8.03;1.80;;;19.60;99.90;;;;;;5071293;28;20184;-70
2022/03/27 09:13:09;;;;;;;10.13;2.13;;;19.60;99.90;;;;;;5072287;28;20173;-70
2022/03/27 09:15:37;;;;;;;7.73;1.70;;;19.50;99.90;;;;;;5075308;28;20223;-71
2022/03/27 09:18:09;;;;;;;10.10;1.50;;;19.50;99.90;;;;;;5074721;28;20241;-72
2022/03/27 09:20:54;;;;;;;6.87;2.07;;;19.50;99.90;;;;;;5074872;28;20192;-71
2022/03/27 09:23:27;;;;;;;7.80;1.83;;;19.50;99.90;;;;;;5075728;28;20183;-72
2022/03/27 09:26:01;;;;;;;9.60;1.73;;;19.50;99.90;;;;;;5076098;28;20179;-71
2022/03/27 09:28:45;;;;;;;9.30;1.70;;;19.50;99.90;;;;;;5076071;28;20552;-72
2022/03/27 09:31:18;;;;;;;12.33;2.10;;;19.50;99.90;;;;;;5075845;28;20218;-71
2022/03/27 09:33:48;;;;;;;13.13;2.10;;;19.50;99.90;;;;;;5075806;28;20212;-71
2022/03/27 09:36:41;;;;;;;15.20;2.43;;;19.50;99.90;;;;;;5074675;28;20680;-71
2022/03/27 09:39:17;;;;;;;12.10;1.93;;;19.50;99.90;;;;;;5076179;28;20538;-71
2022/03/27 09:41:46;;;;;;;8.87;1.80;;;19.50;99.90;;;;;;5075573;28;20183;-72
2022/03/27 09:44:30;;;;;;;7.73;1.60;;;19.60;99.90;;;;;;5075962;28;20214;-72
2022/03/27 09:47:01;;;;;;;11.87;2.20;;;19.60;99.90;;;;;;5075780;28;20249;-71
2022/03/27 09:49:39;;;;;;;13.07;2.23;;;19.60;99.90;;;;;;5075706;28;20630;-70
2022/03/27 09:52:15;;;;;;;10.23;1.83;;;19.60;99.90;;;;;;5054411;28;20183;-73
2022/03/27 09:55:07;;;;;;;7.93;1.73;;;19.60;99.90;;;;;;5055761;28;20241;-71
2022/03/27 09:57:43;;;;;;;6.60;1.93;;;19.70;99.90;;;;;;5059110;28;20183;-72
2022/03/27 10:00:20;;;;;;;8.60;2.43;;;19.70;99.90;;;;;;5075415;28;20187;-71
2022/03/27 10:02:49;;;;;;;11.97;2.70;;;19.70;99.90;;;;;;5075533;28;20176;-72
2022/03/27 10:05:22;;;;;;;13.13;2.30;;;19.70;99.90;;;;;;5075441;28;20532;-71
2022/03/27 10:07:52;;;;;;;8.33;2.53;;;19.70;99.90;;;;;;5075596;28;20188;-72
2022/03/27 10:10:22;;;;;;;10.20;2.40;;;19.60;99.90;;;;;;5075396;28;20203;-71
2022/03/27 10:12:52;;;;;;;14.57;2.40;;;19.60;99.90;;;;;;5075654;28;20179;-71
2022/03/27 10:15:24;;;;;;;10.30;2.87;;;19.60;99.90;;;;;;5074751;28;20231;-71
2022/03/27 10:18:14;;;;;;;14.27;2.73;;;19.60;99.90;;;;;;5072330;28;20276;-71
2022/03/27 10:20:43;;;;;;;10.47;1.93;;;19.70;99.90;;;;;;5064545;28;20168;-71
2022/03/27 10:23:31;;;;;;;11.07;1.87;;;19.60;99.90;;;;;;5085074;28;20184;-71
2022/03/27 10:26:06;;;;;;;7.37;2.07;;;19.60;99.90;;;;;;5075303;28;20176;-71
2022/03/27 10:28:34;;;;;;;10.40;2.03;;;19.50;99.90;;;;;;5075105;28;20546;-71
2022/03/27 10:31:01;;;;;;;6.83;1.40;;;19.60;99.90;;;;;;5075015;28;20172;-71
2022/03/27 10:33:30;;;;;;;6.43;2.10;;;19.50;99.90;;;;;;5075176;28;20183;-72
2022/03/27 10:36:08;;;;;;;8.00;1.67;;;19.50;99.90;;;;;;5074800;28;20216;-70
2022/03/27 10:38:47;;;;;;;6.87;1.60;;;19.50;99.90;;;;;;5074880;28;20186;-72
2022/03/27 10:41:35;;;;;;;9.67;1.67;;;19.50;99.90;;;;;;5074993;28;20255;-71
2022/03/27 10:44:18;;;;;;;12.00;2.20;;;19.40;99.90;;;;;;5073463;28;20189;-72
2022/03/27 10:47:19;;;;;;;7.97;1.93;;;19.40;99.90;;;;;;5075120;28;20171;-71
2022/03/27 10:50:05;;;;;;;5.23;1.77;;;19.50;99.90;;;;;;5074691;28;20171;-72
2022/03/27 10:52:37;;;;;;;7.33;1.90;;;19.50;99.90;;;;;;5073440;28;20176;-72
2022/03/27 10:55:07;;;;;;;10.53;2.00;;;19.50;99.90;;;;;;5075033;28;20231;-72
2022/03/27 10:57:41;;;;;;;10.70;2.23;;;19.50;99.90;;;;;;5074426;28;20210;-71
2022/03/27 11:00:13;;;;;;;7.00;2.43;;;19.50;99.90;;;;;;5074590;28;20175;-71
2022/03/27 11:02:53;;;;;;;8.67;1.83;;;19.50;99.90;;;;;;5074118;28;20179;-71
2022/03/27 11:05:33;;;;;;;8.10;2.40;;;19.50;99.90;;;;;;5074488;28;20527;-71
2022/03/27 11:08:19;;;;;;;13.00;1.97;;;19.50;99.90;;;;;;5074929;28;20176;-71
2022/03/27 11:10:52;;;;;;;7.23;1.80;;;19.50;99.90;;;;;;5072970;28;20540;-71
2022/03/27 11:13:30;;;;;;;10.70;2.17;;;19.50;99.90;;;;;;5074133;28;20212;-71
2022/03/27 11:16:11;;;;;;;10.47;2.20;;;19.50;99.90;;;;;;5074366;28;20561;-72
2022/03/27 11:18:40;;;;;;;6.40;2.30;;;19.50;99.90;;;;;;5072684;28;20207;-71
2022/03/27 11:21:10;;;;;;;8.27;2.00;;;19.50;99.90;;;;;;5073489;28;20179;-71
2022/03/27 11:23:41;;;;;;;9.57;2.63;;;19.50;99.90;;;;;;5073475;28;20204;-72
2022/03/27 11:26:37;;;;;;;8.80;2.50;;;19.40;99.90;;;;;;5073975;28;20168;-71
2022/03/27 11:29:22;;;;;;;7.63;2.20;;;19.40;99.90;;;;;;5060404;28;20191;-71
2022/03/27 11:32:10;;;;;;;6.90;2.20;;;19.40;99.90;;;;;;5072628;28;20187;-71
2022/03/27 11:34:39;;;;;;;8.80;2.53;;;19.40;99.90;;;;;;5073735;28;20210;-72
2022/03/27 11:37:14;;;;;;;6.67;2.17;;;19.40;99.90;;;;;;5072927;28;20202;-72
2022/03/27 11:39:42;;;;;;;8.57;2.33;;;19.40;99.90;;;;;;5073719;28;20175;-72
2022/03/27 11:42:31;;;;;;;6.17;2.13;;;19.30;99.90;;;;;;5073852;28;20172;-72
2022/03/27 11:45:17;;;;;;;13.67;2.07;;;19.30;99.90;;;;;;5073946;28;20176;-72
2022/03/27 11:47:46;;;;;;;8.20;2.00;;;19.30;99.90;;;;;;5073466;28;20180;-72
2022/03/27 11:50:27;;;;;;;6.63;2.03;;;19.20;99.90;;;;;;5073793;28;20179;-72
2022/03/27 11:52:55;;;;;;;3.50;2.03;;;19.20;99.90;;;;;;5073611;28;20203;-72
2022/03/27 11:55:30;;;;;;;9.43;2.60;;;19.20;99.90;;;;;;5073504;28;20219;-72
2022/03/27 11:58:04;;;;;;;6.70;2.30;;;19.20;99.90;;;;;;5055929;28;20219;-71
2022/03/27 12:00:39;;;;;;;9.63;2.20;;;19.10;99.90;;;;;;5072996;28;20180;-71
2022/03/27 12:03:21;;;;;;;6.53;1.77;;;19.10;99.90;;;;;;5073283;28;20634;-70
2022/03/27 12:05:50;;;;;;;8.97;1.83;;;19.10;99.90;;;;;;5072823;28;20188;-71
2022/03/27 12:08:19;;;;;;;14.33;2.83;;;19.10;99.90;;;;;;5073517;28;20176;-71
2022/03/27 12:10:56;;;;;;;8.07;2.20;;;19.10;99.90;;;;;;5073526;28;20183;-70
2022/03/27 12:13:24;;;;;;;8.53;2.70;;;19.10;99.90;;;;;;5073160;28;20704;-71
2022/03/27 12:15:54;;;;;;;7.37;2.60;;;19.10;99.90;;;;;;5073450;28;20688;-72
2022/03/27 12:18:33;;;;;;;5.70;2.33;;;19.00;99.90;;;;;;5073237;28;20183;-72
2022/03/27 12:21:05;;;;;;;7.47;2.07;;;19.00;99.90;;;;;;5073429;28;20625;-72
2022/03/27 12:23:38;;;;;;;10.30;2.00;;;19.00;99.90;;;;;;5073401;28;20196;-72
2022/03/27 12:32:14;;;;;;;7.83;2.27;;;19.00;99.90;;;;;;5072535;28;20589;-72
2022/03/27 12:34:44;;;;;;;9.37;2.17;;;19.00;99.90;;;;;;5070806;28;20203;-71
2022/03/27 12:37:14;;;;;;;9.43;2.47;;;19.00;99.90;;;;;;5072457;28;20172;-71
2022/03/27 12:40:06;;;;;;;7.47;2.23;;;19.00;99.90;;;;;;5072554;28;20178;-71
2022/03/27 12:42:45;;;;;;;11.50;2.63;;;19.00;99.90;;;;;;5072595;28;20237;-70
2022/03/27 12:45:22;;;;;;;10.13;2.07;;;19.00;99.90;;;;;;5069822;28;20176;-72
2022/03/27 12:47:59;;;;;;;8.43;2.10;;;19.10;99.90;;;;;;5074446;28;20168;-70
2022/03/27 12:50:29;;;;;;;10.23;2.40;;;19.00;99.90;;;;;;5076617;28;20585;-72
2022/03/27 12:52:57;;;;;;;5.00;1.50;;;19.00;99.90;;;;;;5076749;28;20206;-71
2022/03/27 12:55:27;;;;;;;8.73;2.60;;;18.90;99.90;;;;;;5076953;28;20231;-72
2022/03/27 12:58:02;;;;;;;8.73;2.03;;;18.90;99.90;;;;;;5076919;28;20632;-71
2022/03/27 13:00:31;;;;;;;5.80;1.90;;;18.90;99.90;;;;;;5076776;28;20171;-72
2022/03/27 13:03:31;;;;;;;6.17;2.13;;;18.90;99.90;;;;;;5076358;28;20184;-72
2022/03/27 13:06:01;;;;;;;5.67;2.00;;;18.90;99.90;;;;;;5064545;28;20195;-71
2022/03/27 13:08:45;;;;;;;5.20;2.00;;;18.80;99.90;;;;;;5075342;28;20180;-71